createdAt,value
2022-10-23T00:01:27.341Z,23.46
2022-10-23T00:04:00.371Z,23.46
2022-10-23T00:06:33.281Z,23.46
2022-10-23T00:09:06.357Z,23.45
2022-10-23T00:11:39.360Z,23.45
2022-10-23T00:14:12.274Z,23.44
2022-10-23T00:16:45.312Z,23.44
2022-10-23T00:19:18.294Z,23.44
2022-10-23T00:21:51.318Z,23.43
2022-10-23T00:24:24.308Z,23.43
2022-10-23T00:26:57.371Z,23.43
2022-10-23T00:29:30.315Z,23.43
2022-10-23T00:32:03.303Z,23.43
2022-10-23T00:34:36.401Z,23.42
2022-10-23T00:37:09.316Z,23.42
2022-10-23T00:39:42.436Z,23.42
2022-10-23T00:42:15.329Z,23.42
2022-10-23T00:44:48.401Z,23.41
2022-10-23T00:47:21.358Z,23.41
2022-10-23T00:49:54.417Z,23.41
2022-10-23T00:52:27.406Z,23.40
2022-10-23T00:55:00.419Z,23.40
2022-10-23T00:57:33.262Z,23.40
2022-10-23T01:00:06.396Z,23.40
2022-10-23T01:02:39.717Z,23.39
2022-10-23T01:05:12.396Z,23.39
2022-10-23T01:07:45.452Z,23.38
2022-10-23T01:10:18.440Z,23.38
2022-10-23T01:12:51.494Z,23.38
2022-10-23T01:15:24.338Z,23.37
2022-10-23T01:17:57.445Z,23.37
2022-10-23T01:20:30.421Z,23.36
2022-10-23T01:23:03.450Z,23.36
2022-10-23T01:25:36.459Z,23.36
2022-10-23T01:28:09.380Z,23.36
2022-10-23T01:33:15.422Z,23.35
2022-10-23T01:35:48.479Z,23.34
2022-10-23T01:38:21.470Z,23.34
2022-10-23T01:40:54.425Z,23.34
2022-10-23T01:43:29.383Z,23.33
2022-10-23T01:46:02.471Z,23.33
2022-10-23T01:48:35.344Z,23.32
2022-10-23T01:51:08.520Z,23.32
2022-10-23T01:53:41.534Z,23.32
2022-10-23T01:56:14.482Z,23.31
2022-10-23T01:58:47.524Z,23.31
2022-10-23T02:01:20.501Z,23.31
2022-10-23T02:03:53.579Z,23.30
2022-10-23T02:06:26.452Z,23.29
2022-10-23T02:08:59.478Z,23.29
2022-10-23T02:11:32.502Z,23.29
2022-10-23T02:14:05.489Z,23.28
2022-10-23T02:16:38.414Z,23.28
2022-10-23T02:19:11.545Z,23.28
2022-10-23T02:21:44.546Z,23.28
2022-10-23T02:24:17.540Z,23.28
2022-10-23T02:26:50.496Z,23.27
2022-10-23T02:29:23.599Z,23.27
2022-10-23T02:31:56.589Z,23.27
2022-10-23T02:34:29.532Z,23.26
2022-10-23T02:37:02.476Z,23.26
2022-10-23T02:39:35.721Z,23.26
2022-10-23T02:42:09.486Z,23.25
2022-10-23T02:44:42.593Z,23.25
2022-10-23T02:47:15.502Z,23.25
2022-10-23T02:49:48.562Z,23.24
2022-10-23T02:52:21.608Z,23.24
2022-10-23T02:54:54.565Z,23.24
2022-10-23T02:57:27.575Z,23.24
2022-10-23T03:00:00.593Z,23.23
2022-10-23T03:02:33.637Z,23.23
2022-10-23T03:05:06.589Z,23.23
2022-10-23T03:07:39.897Z,23.22
2022-10-23T03:10:12.572Z,23.22
2022-10-23T03:12:45.909Z,23.21
2022-10-23T03:15:18.543Z,23.21
2022-10-23T03:17:51.630Z,23.21
2022-10-23T03:20:24.653Z,23.20
2022-10-23T03:22:57.639Z,23.20
2022-10-23T03:25:30.671Z,23.20
2022-10-23T03:28:03.615Z,23.19
2022-10-23T03:30:36.400Z,23.19
2022-10-23T03:33:09.603Z,23.19
2022-10-23T03:35:42.667Z,23.18
2022-10-23T03:38:15.308Z,23.18
2022-10-23T03:40:48.560Z,23.18
2022-10-23T03:43:21.631Z,23.17
2022-10-23T03:45:54.634Z,23.17
2022-10-23T03:48:27.647Z,23.16
2022-10-23T03:51:00.659Z,23.16
2022-10-23T03:53:33.682Z,23.16
2022-10-23T03:56:06.636Z,23.15
2022-10-23T03:58:39.661Z,23.15
2022-10-23T04:01:12.679Z,23.15
2022-10-23T04:03:45.684Z,23.14
2022-10-23T04:06:18.705Z,23.14
2022-10-23T04:08:51.691Z,23.13
2022-10-23T04:11:24.675Z,23.13
2022-10-23T04:13:57.562Z,23.12
2022-10-23T04:16:30.708Z,23.12
2022-10-23T04:19:03.753Z,23.12
2022-10-23T04:21:36.674Z,23.12
2022-10-23T04:24:09.684Z,23.11
2022-10-23T04:26:42.704Z,23.11
2022-10-23T04:29:15.636Z,23.11
2022-10-23T04:32:02.589Z,23.10
2022-10-23T04:34:35.730Z,23.10
2022-10-23T04:37:08.714Z,23.10
2022-10-23T04:39:41.732Z,23.09
2022-10-23T04:42:14.712Z,23.09
2022-10-23T04:44:47.747Z,23.09
2022-10-23T04:47:20.696Z,23.08
2022-10-23T04:49:53.677Z,23.08
2022-10-23T04:52:26.719Z,23.08
2022-10-23T04:54:59.729Z,23.08
2022-10-23T04:57:32.696Z,23.07
2022-10-23T05:00:05.581Z,23.07
2022-10-23T05:02:38.706Z,23.07
2022-10-23T05:05:11.723Z,23.06
2022-10-23T05:07:45.264Z,23.06
2022-10-23T05:10:17.782Z,23.06
2022-10-23T05:12:50.767Z,23.05
2022-10-23T05:15:23.809Z,23.05
2022-10-23T05:17:56.667Z,23.05
2022-10-23T05:20:29.796Z,23.05
2022-10-23T05:23:02.918Z,23.04
2022-10-23T05:25:36.962Z,23.04
2022-10-23T05:28:10.770Z,23.04
2022-10-23T05:30:43.596Z,23.04
2022-10-23T05:33:16.795Z,23.03
2022-10-23T05:35:49.459Z,23.03
2022-10-23T05:38:22.796Z,23.03
2022-10-23T05:40:55.789Z,23.02
2022-10-23T05:43:28.800Z,23.02
2022-10-23T05:46:01.797Z,23.02
2022-10-23T05:48:35.503Z,23.02
2022-10-23T05:51:07.760Z,23.02
2022-10-23T05:53:42.575Z,23.02
2022-10-23T05:56:13.875Z,23.01
2022-10-23T05:58:46.841Z,23.01
2022-10-23T06:01:19.861Z,23.01
2022-10-23T06:03:52.902Z,23.00
2022-10-23T06:06:25.803Z,23.00
2022-10-23T06:08:58.922Z,23.00
2022-10-23T06:11:45.835Z,22.99
2022-10-23T06:14:18.811Z,22.99
2022-10-23T06:16:51.628Z,22.99
2022-10-23T06:19:24.801Z,22.99
2022-10-23T06:21:57.545Z,22.99
2022-10-23T06:24:30.860Z,22.99
2022-10-23T06:27:03.942Z,22.98
2022-10-23T06:29:36.811Z,22.98
2022-10-23T06:32:09.821Z,22.98
2022-10-23T06:34:42.873Z,22.97
2022-10-23T06:37:15.853Z,22.97
2022-10-23T06:39:48.863Z,22.97
2022-10-23T06:42:22.847Z,22.96
2022-10-23T06:44:55.868Z,22.96
2022-10-23T06:47:28.600Z,22.96
2022-10-23T06:50:01.743Z,22.96
2022-10-23T06:52:46.433Z,22.96
2022-10-23T06:55:07.651Z,22.95
2022-10-23T06:57:41.373Z,22.95
2022-10-23T07:00:14.566Z,22.95
2022-10-23T07:02:47.898Z,22.95
2022-10-23T07:05:20.883Z,22.95
2022-10-23T07:08:07.900Z,22.94
2022-10-23T07:10:40.652Z,22.94
2022-10-23T07:13:13.623Z,22.94
2022-10-23T07:15:46.646Z,22.94
2022-10-23T07:18:19.688Z,22.94
2022-10-23T07:20:52.795Z,22.94
2022-10-23T07:23:25.971Z,22.94
2022-10-23T07:25:58.606Z,22.94
2022-10-23T07:28:32.006Z,22.94
2022-10-23T07:31:04.698Z,22.94
2022-10-23T07:33:37.807Z,22.94
2022-10-23T07:36:10.635Z,22.94
2022-10-23T07:38:44.020Z,22.94
2022-10-23T07:41:16.649Z,22.94
2022-10-23T07:43:49.664Z,22.94
2022-10-23T07:46:22.910Z,22.94
2022-10-23T07:48:55.913Z,22.94
2022-10-23T07:51:28.962Z,22.94
2022-10-23T07:54:01.874Z,22.93
2022-10-23T07:56:34.937Z,22.92
2022-10-23T07:59:07.780Z,22.91
2022-10-23T08:01:40.877Z,22.90
2022-10-23T08:04:13.839Z,22.90
2022-10-23T08:06:46.699Z,22.89
2022-10-23T08:09:19.792Z,22.89
2022-10-23T08:11:52.784Z,22.89
2022-10-23T08:14:25.844Z,22.90
2022-10-23T08:16:59.002Z,22.90
2022-10-23T08:19:31.855Z,22.91
2022-10-23T08:22:04.712Z,22.93
2022-10-23T08:24:39.771Z,22.94
2022-10-23T08:27:12.742Z,22.95
2022-10-23T08:29:45.902Z,22.96
2022-10-23T08:32:18.863Z,22.98
2022-10-23T08:34:52.100Z,22.99
2022-10-23T08:37:24.747Z,23.01
2022-10-23T08:39:58.007Z,23.02
2022-10-23T08:42:30.802Z,23.04
2022-10-23T08:45:03.896Z,23.05
2022-10-23T08:47:36.755Z,23.06
2022-10-23T08:50:10.052Z,23.08
2022-10-23T08:52:43.193Z,23.09
2022-10-23T08:55:16.067Z,23.10
2022-10-23T08:57:49.041Z,23.11
2022-10-23T09:00:22.020Z,23.12
2022-10-23T09:02:55.174Z,23.13
2022-10-23T09:05:27.900Z,23.14
2022-10-23T09:08:01.098Z,23.15
2022-10-23T09:10:33.752Z,23.16
2022-10-23T09:13:07.136Z,23.17
2022-10-23T09:15:40.055Z,23.17
2022-10-23T09:18:13.133Z,23.18
2022-10-23T09:20:46.066Z,23.19
2022-10-23T09:23:19.103Z,23.20
2022-10-23T09:25:51.906Z,23.22
2022-10-23T09:28:24.915Z,23.23
2022-10-23T09:30:57.816Z,23.23
2022-10-23T09:33:30.960Z,23.24
2022-10-23T09:36:03.827Z,23.25
2022-10-23T09:38:36.821Z,23.26
2022-10-23T09:41:10.151Z,23.27
2022-10-23T09:43:43.140Z,23.27
2022-10-23T09:46:15.836Z,23.28
2022-10-23T09:48:48.949Z,23.28
2022-10-23T09:51:22.148Z,23.26
2022-10-23T09:53:54.868Z,23.25
2022-10-23T09:56:33.949Z,23.22
2022-10-23T09:59:06.941Z,23.20
2022-10-23T10:01:40.352Z,23.17
2022-10-23T10:04:13.162Z,23.15
2022-10-23T10:06:46.207Z,23.12
2022-10-23T10:09:19.123Z,23.10
2022-10-23T10:11:52.136Z,23.07
2022-10-23T10:14:25.118Z,23.05
2022-10-23T10:16:58.213Z,23.05
2022-10-23T10:19:31.159Z,23.04
2022-10-23T10:22:04.191Z,23.04
2022-10-23T10:24:37.354Z,23.04
2022-10-23T10:27:11.186Z,23.04
2022-10-23T10:29:44.064Z,23.05
2022-10-23T10:32:17.228Z,23.06
2022-10-23T10:34:49.914Z,23.07
2022-10-23T10:37:23.005Z,23.08
2022-10-23T10:39:55.910Z,23.08
2022-10-23T10:42:28.901Z,23.09
2022-10-23T10:45:02.276Z,23.10
2022-10-23T10:47:35.217Z,23.11
2022-10-23T10:50:07.980Z,23.12
2022-10-23T10:52:44.206Z,23.13
2022-10-23T10:55:13.920Z,23.14
2022-10-23T10:57:47.325Z,23.16
2022-10-23T11:00:20.098Z,23.17
2022-10-23T11:02:53.030Z,23.18
2022-10-23T11:05:26.195Z,23.20
2022-10-23T11:07:59.065Z,23.21
2022-10-23T11:10:32.223Z,23.22
2022-10-23T11:13:05.264Z,23.23
2022-10-23T11:15:38.367Z,23.24
2022-10-23T11:18:11.232Z,23.24
2022-10-23T11:20:43.989Z,23.24
2022-10-23T11:23:16.983Z,23.24
2022-10-23T11:25:50.036Z,23.24
2022-10-23T11:28:23.058Z,23.24
2022-10-23T11:30:56.107Z,23.24
2022-10-23T11:33:29.376Z,23.24
2022-10-23T11:36:02.084Z,23.23
2022-10-23T11:38:35.079Z,23.21
2022-10-23T11:41:08.004Z,23.20
2022-10-23T11:43:41.127Z,23.18
2022-10-23T11:46:14.318Z,23.17
2022-10-23T11:48:47.430Z,23.16
2022-10-23T11:51:20.113Z,23.15
2022-10-23T11:53:53.056Z,23.16
2022-10-23T11:56:26.297Z,23.16
2022-10-23T11:58:59.138Z,23.17
2022-10-23T12:01:32.387Z,23.18
2022-10-23T12:04:05.046Z,23.18
2022-10-23T12:06:38.362Z,23.19
2022-10-23T12:09:11.020Z,23.20
2022-10-23T12:11:44.175Z,23.23
2022-10-23T12:14:17.416Z,23.24
2022-10-23T12:16:50.042Z,23.27
2022-10-23T12:19:23.391Z,23.29
2022-10-23T12:21:56.075Z,23.32
2022-10-23T12:24:29.360Z,23.35
2022-10-23T12:27:02.320Z,23.39
2022-10-23T12:29:35.173Z,23.42
2022-10-23T12:32:08.122Z,23.44
2022-10-23T12:34:41.222Z,23.45
2022-10-23T12:37:14.256Z,23.46
2022-10-23T12:39:47.354Z,23.46
2022-10-23T12:42:20.193Z,23.45
2022-10-23T12:44:53.170Z,23.45
2022-10-23T12:47:26.275Z,23.45
2022-10-23T12:49:59.109Z,23.45
2022-10-23T12:52:32.106Z,23.46
2022-10-23T12:55:05.234Z,23.46
2022-10-23T12:57:38.215Z,23.48
2022-10-23T13:00:11.106Z,23.48
2022-10-23T13:02:44.320Z,23.49
2022-10-23T13:05:17.123Z,23.50
2022-10-23T13:07:50.274Z,23.50
2022-10-23T13:10:23.134Z,23.50
2022-10-23T13:12:56.146Z,23.50
2022-10-23T13:15:29.183Z,23.51
2022-10-23T13:18:02.230Z,23.51
2022-10-23T13:20:35.245Z,23.51
2022-10-23T13:23:08.146Z,23.52
2022-10-23T13:25:41.217Z,23.52
2022-10-23T13:28:14.259Z,23.52
2022-10-23T13:30:47.134Z,23.52
2022-10-23T13:33:20.295Z,23.53
2022-10-23T13:35:53.309Z,23.53
2022-10-23T13:38:26.184Z,23.54
2022-10-23T13:40:59.282Z,23.54
2022-10-23T13:43:32.175Z,23.55
2022-10-23T13:46:05.398Z,23.55
2022-10-23T13:48:38.244Z,23.56
2022-10-23T13:51:11.179Z,23.56
2022-10-23T13:53:44.315Z,23.57
2022-10-23T13:56:17.365Z,23.57
2022-10-23T13:58:50.208Z,23.57
2022-10-23T14:01:23.741Z,23.58
2022-10-23T14:03:56.482Z,23.58
2022-10-23T14:06:29.425Z,23.58
2022-10-23T14:09:02.553Z,23.59
2022-10-23T14:11:35.364Z,23.59
2022-10-23T14:14:08.180Z,23.59
2022-10-23T14:16:41.342Z,23.59
2022-10-23T14:19:14.570Z,23.59
2022-10-23T14:21:47.590Z,23.59
2022-10-23T14:24:20.511Z,23.59
2022-10-23T14:26:53.425Z,23.60
2022-10-23T14:29:26.594Z,23.60
2022-10-23T14:31:59.487Z,23.60
2022-10-23T14:34:32.509Z,23.60
2022-10-23T14:37:08.726Z,23.61
2022-10-23T14:39:38.221Z,23.61
2022-10-23T14:42:11.603Z,23.61
2022-10-23T14:44:44.506Z,23.62
2022-10-23T14:47:19.250Z,23.62
2022-10-23T14:49:52.283Z,23.62
2022-10-23T14:52:25.342Z,23.63
2022-10-23T14:54:58.532Z,23.63
2022-10-23T14:57:31.301Z,23.64
2022-10-23T15:00:04.398Z,23.65
2022-10-23T15:02:37.280Z,23.65
2022-10-23T15:05:10.306Z,23.66
2022-10-23T15:07:57.229Z,23.66
2022-10-23T15:10:30.564Z,23.67
2022-10-23T15:13:06.536Z,23.67
2022-10-23T15:15:39.302Z,23.68
2022-10-23T15:18:26.624Z,23.68
2022-10-23T15:20:59.291Z,23.68
2022-10-23T15:23:32.508Z,23.69
2022-10-23T15:26:08.417Z,23.69
2022-10-23T15:28:41.472Z,23.69
2022-10-23T15:31:14.390Z,23.69
2022-10-23T15:33:47.413Z,23.70
2022-10-23T15:36:20.381Z,23.70
2022-10-23T15:38:53.504Z,23.70
2022-10-23T15:41:26.468Z,23.70
2022-10-23T15:43:59.428Z,23.70
2022-10-23T15:46:32.322Z,23.71
2022-10-23T15:49:05.532Z,23.71
2022-10-23T15:51:38.363Z,23.71
2022-10-23T15:54:11.411Z,23.71
2022-10-23T15:56:44.633Z,23.71
2022-10-23T15:59:17.343Z,23.71
2022-10-23T16:01:50.469Z,23.71
2022-10-23T16:04:23.429Z,23.71
2022-10-23T16:06:56.748Z,23.70
2022-10-23T16:09:29.717Z,23.70
2022-10-23T16:12:02.684Z,23.70
2022-10-23T16:14:35.441Z,23.69
2022-10-23T16:17:08.466Z,23.68
2022-10-23T16:19:41.534Z,23.68
2022-10-23T16:22:17.628Z,23.67
2022-10-23T16:24:50.586Z,23.66
2022-10-23T16:27:23.552Z,23.66
2022-10-23T16:29:56.749Z,23.65
2022-10-23T16:32:35.609Z,23.65
2022-10-23T16:35:11.025Z,23.65
2022-10-23T16:37:41.636Z,23.65
2022-10-23T16:40:14.706Z,23.64
2022-10-23T16:42:47.613Z,23.64
2022-10-23T16:45:20.568Z,23.64
2022-10-23T16:47:53.489Z,23.64
2022-10-23T16:50:26.828Z,23.64
2022-10-23T16:52:59.688Z,23.64
2022-10-23T16:55:32.787Z,23.64
2022-10-23T16:58:05.712Z,23.64
2022-10-23T17:00:38.834Z,23.64
2022-10-23T17:03:11.746Z,23.64
2022-10-23T17:05:44.657Z,23.64
2022-10-23T17:08:17.593Z,23.64
2022-10-23T17:10:50.555Z,23.64
2022-10-23T17:13:23.449Z,23.64
2022-10-23T17:15:56.475Z,23.65
2022-10-23T17:18:29.480Z,23.65
2022-10-23T17:21:02.450Z,23.65
2022-10-23T17:23:35.492Z,23.65
2022-10-23T17:26:08.720Z,23.65
2022-10-23T17:28:41.604Z,23.66
2022-10-23T17:31:14.491Z,23.66
2022-10-23T17:33:47.477Z,23.66
2022-10-23T17:36:20.493Z,23.66
2022-10-23T17:38:53.572Z,23.67
2022-10-23T17:41:26.556Z,23.67
2022-10-23T17:43:59.665Z,23.67
2022-10-23T17:46:32.487Z,23.67
2022-10-23T17:49:05.942Z,23.68
2022-10-23T17:51:38.548Z,23.69
2022-10-23T17:54:11.517Z,23.69
2022-10-23T17:56:44.880Z,23.70
2022-10-23T17:59:17.564Z,23.70
2022-10-23T18:01:51.018Z,23.71
2022-10-23T18:04:23.936Z,23.71
2022-10-23T18:06:56.650Z,23.72
2022-10-23T18:09:35.446Z,23.73
2022-10-23T18:12:08.585Z,23.73
2022-10-23T18:14:41.810Z,23.74
2022-10-23T18:17:14.560Z,23.74
2022-10-23T18:19:47.721Z,23.75
2022-10-23T18:22:20.871Z,23.75
2022-10-23T18:24:53.672Z,23.76
2022-10-23T18:27:26.704Z,23.76
2022-10-23T18:29:59.567Z,23.76
2022-10-23T18:32:32.706Z,23.76
2022-10-23T18:35:08.663Z,23.76
2022-10-23T18:37:41.807Z,23.77
2022-10-23T18:40:14.582Z,23.77
2022-10-23T18:42:47.951Z,23.77
2022-10-23T18:45:20.938Z,23.77
2022-10-23T18:47:53.925Z,23.77
2022-10-23T18:50:26.967Z,23.78
2022-10-23T18:52:59.868Z,23.78
2022-10-23T18:58:05.927Z,23.79
2022-10-23T19:00:38.770Z,23.79
2022-10-23T19:03:11.887Z,23.79
2022-10-23T19:05:44.922Z,23.79
2022-10-23T19:08:17.912Z,23.80
2022-10-23T19:10:50.957Z,23.80
2022-10-23T19:13:23.965Z,23.81
2022-10-23T19:15:56.962Z,23.81
2022-10-23T19:18:29.903Z,23.81
2022-10-23T19:21:02.628Z,23.81
2022-10-23T19:23:35.637Z,23.81
2022-10-23T19:26:08.663Z,23.81
2022-10-23T19:28:41.922Z,23.81
2022-10-23T19:31:14.940Z,23.81
2022-10-23T19:33:47.971Z,23.82
2022-10-23T19:36:23.488Z,23.82
2022-10-23T19:38:53.668Z,23.82
2022-10-23T19:41:26.768Z,23.83
2022-10-23T19:44:00.010Z,23.82
2022-10-23T19:46:32.958Z,23.82
2022-10-23T19:49:05.673Z,23.81
2022-10-23T19:51:38.917Z,23.80
2022-10-23T19:54:11.956Z,23.79
2022-10-23T19:56:44.806Z,23.79
2022-10-23T19:59:17.999Z,23.79
2022-10-23T20:01:51.208Z,23.78
2022-10-23T20:04:23.723Z,23.79
2022-10-23T20:06:57.066Z,23.78
2022-10-23T20:09:43.988Z,23.78
2022-10-23T20:12:17.006Z,23.79
2022-10-23T20:14:49.861Z,23.80
2022-10-23T20:17:22.758Z,23.81
2022-10-23T20:19:55.705Z,23.81
2022-10-23T20:22:28.850Z,23.82
2022-10-23T20:25:15.865Z,23.81
2022-10-23T20:27:48.744Z,23.81
2022-10-23T20:30:21.837Z,23.80
2022-10-23T20:32:54.805Z,23.80
2022-10-23T20:35:28.660Z,23.79
2022-10-23T20:38:01.889Z,23.79
2022-10-23T20:40:34.830Z,23.78
2022-10-23T20:43:07.875Z,23.78
2022-10-23T20:45:40.872Z,23.78
2022-10-23T20:48:13.781Z,23.78
2022-10-23T20:50:46.863Z,23.78
2022-10-23T20:53:21.124Z,23.78
2022-10-23T20:55:54.121Z,23.77
2022-10-23T20:58:27.116Z,23.77
2022-10-23T21:01:00.105Z,23.77
2022-10-23T21:03:32.815Z,23.76
2022-10-23T21:06:06.088Z,23.76
2022-10-23T21:08:39.132Z,23.75
2022-10-23T21:11:12.049Z,23.75
2022-10-23T21:13:45.127Z,23.74
2022-10-23T21:16:18.112Z,23.74
2022-10-23T21:18:50.811Z,23.73
2022-10-23T21:21:23.901Z,23.73
2022-10-23T21:23:56.866Z,23.73
2022-10-23T21:26:29.805Z,23.72
2022-10-23T21:29:18.954Z,23.71
2022-10-23T21:31:36.216Z,23.71
2022-10-23T21:37:00.199Z,23.70
2022-10-23T21:39:14.843Z,23.70
2022-10-23T21:41:48.190Z,23.70
2022-10-23T21:44:21.194Z,23.69
2022-10-23T21:46:54.186Z,23.69
2022-10-23T21:49:27.240Z,23.69
2022-10-23T21:52:00.191Z,23.68
2022-10-23T21:54:33.169Z,23.68
2022-10-23T21:57:06.223Z,23.68
2022-10-23T21:59:39.174Z,23.67
2022-10-23T22:02:12.369Z,23.66
2022-10-23T22:04:45.137Z,23.66
2022-10-23T22:07:18.164Z,23.66
2022-10-23T22:09:51.277Z,23.66
2022-10-23T22:12:24.157Z,23.65
2022-10-23T22:14:57.258Z,23.65
2022-10-23T22:17:30.211Z,23.65
2022-10-23T22:20:03.252Z,23.64
2022-10-23T22:22:36.236Z,23.63
2022-10-23T22:25:09.171Z,23.63
2022-10-23T22:27:48.107Z,23.63
2022-10-23T22:30:21.252Z,23.62
2022-10-23T22:32:54.272Z,23.62
2022-10-23T22:35:27.313Z,23.62
2022-10-23T22:38:00.281Z,23.61
2022-10-23T22:40:33.392Z,23.61
2022-10-23T22:43:07.314Z,23.61
2022-10-23T22:45:40.264Z,23.60
2022-10-23T22:48:13.223Z,23.60
2022-10-23T22:50:46.393Z,23.59
2022-10-23T22:53:19.926Z,23.59
2022-10-23T22:55:53.299Z,23.58
2022-10-23T22:58:26.245Z,23.58
2022-10-23T23:00:59.311Z,23.58
2022-10-23T23:03:32.357Z,23.58
2022-10-23T23:06:05.317Z,23.57
2022-10-23T23:08:38.278Z,23.57
2022-10-23T23:11:11.233Z,23.57
2022-10-23T23:13:44.310Z,23.56
2022-10-23T23:16:17.227Z,23.56
2022-10-23T23:18:50.269Z,23.56
2022-10-23T23:21:23.100Z,23.55
2022-10-23T23:23:56.285Z,23.54
2022-10-23T23:26:29.377Z,23.54
2022-10-23T23:29:02.282Z,23.54
2022-10-23T23:31:35.386Z,23.54
2022-10-23T23:34:08.322Z,23.53
2022-10-23T23:36:41.380Z,23.53
2022-10-23T23:39:14.291Z,23.53
2022-10-23T23:41:47.143Z,23.52
2022-10-23T23:44:20.349Z,23.52
2022-10-23T23:46:53.340Z,23.51
2022-10-23T23:49:26.351Z,23.51
2022-10-23T23:51:59.357Z,23.50
2022-10-23T23:54:32.330Z,23.50
2022-10-23T23:57:05.307Z,23.50
2022-10-23T23:59:38.357Z,23.50
